ETD5BN OMAA-CYYZ
Flight info
| Callsign | ETD5BN |
|---|---|
| Flight time | N/A |
| Altitude | 34000 |
| Route | DAXIB Q563 IMGUX N563 ALPOB L768 AAR V45 TRF R652 OBROD Q163 GENEX L53 PURLA/N0492F360 L53 SUVAS N128 OTHON UN128 RDS UL609 MES UG18 FSK UN128 RUGAS DCT RAXAD DCT VAGEN DCT BABIT DCT BEGLA DCT DITIS DCT VARIK L602 SODRO DCT KATCE/N0475F380 DCT HMM L602 NALAX L46 GETNO DCT REMSI DCT NIBOG DCT PIKIL/M083F390 DCT 57N020W 57N030W 57N040W 56N050W DCT JANJO/N0481F400 DCT ALKOB DCT YBC DCT POLTY IMEBA9 |
| Aircraft | A388/J-SADE2E3FGHIJ3J4J5M1RWXY/LB1D1 |
Departure
| Time | N/A |
|---|---|
| Airport | Zayed International Airport (OMAA) |
Arrival
| Time | 2026-05-04 14:36 |
|---|---|
| Airport | Toronto Pearson International Airport (CYYZ) |
| Time | Latitude | Longitude | Altitude | Speed | Heading |
|---|---|---|---|---|---|
| 2026-05-04 14:18 | 44.66754 | -78.29709 | 39743 ft | 469 kts | 236° |
| 2026-05-04 14:19 | 44.62787 | -78.36980 | 39744 ft | 469 kts | 236° |
| 2026-05-04 14:19 | 44.58820 | -78.44231 | 39640 ft | 466 kts | 236° |
| 2026-05-04 14:19 | 44.56849 | -78.47826 | 39128 ft | 466 kts | 236° |
| 2026-05-04 14:20 | 44.54866 | -78.51441 | 38318 ft | 469 kts | 236° |
| 2026-05-04 14:20 | 44.52873 | -78.55072 | 37019 ft | 472 kts | 237° |
| 2026-05-04 14:20 | 44.50866 | -78.58720 | 35809 ft | 471 kts | 237° |
| 2026-05-04 14:21 | 44.46869 | -78.65967 | 33382 ft | 469 kts | 239° |
| 2026-05-04 14:21 | 44.44881 | -78.69570 | 32060 ft | 466 kts | 238° |
| 2026-05-04 14:21 | 44.42909 | -78.73133 | 30984 ft | 460 kts | 238° |
| 2026-05-04 14:21 | 44.40967 | -78.76640 | 29983 ft | 454 kts | 238° |
| 2026-05-04 14:22 | 44.39042 | -78.80110 | 28888 ft | 447 kts | 238° |
| 2026-05-04 14:22 | 44.37151 | -78.83517 | 27840 ft | 441 kts | 238° |
| 2026-05-04 14:22 | 44.35285 | -78.86876 | 26802 ft | 435 kts | 238° |
| 2026-05-04 14:22 | 44.33440 | -78.90195 | 25774 ft | 429 kts | 238° |
| 2026-05-04 14:23 | 44.29820 | -78.96696 | 23839 ft | 419 kts | 237° |
| 2026-05-04 14:23 | 44.28035 | -78.99896 | 22851 ft | 415 kts | 237° |
| 2026-05-04 14:23 | 44.26283 | -79.03034 | 21890 ft | 407 kts | 237° |
| 2026-05-04 14:24 | 44.24521 | -79.06094 | 20933 ft | 402 kts | 233° |
| 2026-05-04 14:24 | 44.22640 | -79.08911 | 20032 ft | 395 kts | 231° |
| 2026-05-04 14:24 | 44.20780 | -79.11708 | 19153 ft | 389 kts | 231° |
| 2026-05-04 14:24 | 44.18973 | -79.14447 | 18281 ft | 382 kts | 231° |
| 2026-05-04 14:25 | 44.17180 | -79.17164 | 17332 ft | 377 kts | 231° |
| 2026-05-04 14:25 | 44.13685 | -79.22443 | 15481 ft | 365 kts | 231° |
| 2026-05-04 14:25 | 44.11979 | -79.25014 | 14598 ft | 359 kts | 231° |
| 2026-05-04 14:26 | 44.10294 | -79.27549 | 13717 ft | 354 kts | 231° |
| 2026-05-04 14:26 | 44.08580 | -79.29953 | 12742 ft | 351 kts | 221° |
| 2026-05-04 14:26 | 44.06432 | -79.31593 | 11787 ft | 356 kts | 202° |
| 2026-05-04 14:26 | 44.03991 | -79.32131 | 11068 ft | 356 kts | 182° |
| 2026-05-04 14:27 | 44.01594 | -79.31868 | 10801 ft | 335 kts | 181° |
| 2026-05-04 14:27 | 43.99340 | -79.31665 | 10615 ft | 314 kts | 182° |
| 2026-05-04 14:27 | 43.97229 | -79.31502 | 10428 ft | 295 kts | 182° |
| 2026-05-04 14:27 | 43.95242 | -79.31350 | 10277 ft | 277 kts | 182° |
| 2026-05-04 14:28 | 43.93383 | -79.31203 | 10132 ft | 259 kts | 183° |
| 2026-05-04 14:28 | 43.91664 | -79.31063 | 9981 ft | 243 kts | 183° |
| 2026-05-04 14:28 | 43.90003 | -79.30927 | 9738 ft | 232 kts | 183° |
| 2026-05-04 14:28 | 43.88422 | -79.30827 | 9282 ft | 228 kts | 192° |
| 2026-05-04 14:29 | 43.85970 | -79.32927 | 8270 ft | 207 kts | 232° |
| 2026-05-04 14:29 | 43.84018 | -79.35808 | 7467 ft | 202 kts | 230° |
| 2026-05-04 14:30 | 43.83044 | -79.37209 | 7062 ft | 200 kts | 230° |
| 2026-05-04 14:30 | 43.82093 | -79.38572 | 6683 ft | 199 kts | 230° |
| 2026-05-04 14:30 | 43.80189 | -79.41294 | 6090 ft | 185 kts | 230° |
| 2026-05-04 14:31 | 43.79325 | -79.42553 | 5726 ft | 180 kts | 230° |
| 2026-05-04 14:31 | 43.77864 | -79.44693 | 4986 ft | 137 kts | 230° |
| 2026-05-04 14:32 | 43.76592 | -79.46573 | 3853 ft | 130 kts | 229° |
| 2026-05-04 14:32 | 43.75977 | -79.47444 | 3436 ft | 122 kts | 228° |
| 2026-05-04 14:32 | 43.75366 | -79.48279 | 3028 ft | 125 kts | 229° |
| 2026-05-04 14:32 | 43.74770 | -79.49133 | 2637 ft | 121 kts | 230° |
| 2026-05-04 14:33 | 43.74207 | -79.49983 | 2446 ft | 119 kts | 231° |
| 2026-05-04 14:33 | 43.73651 | -79.50845 | 2360 ft | 120 kts | 232° |
| 2026-05-04 14:33 | 43.73094 | -79.51711 | 2180 ft | 121 kts | 231° |
| 2026-05-04 14:33 | 43.72501 | -79.52531 | 2030 ft | 121 kts | 226° |
| 2026-05-04 14:34 | 43.71896 | -79.53356 | 1858 ft | 125 kts | 227° |
| 2026-05-04 14:34 | 43.71304 | -79.54181 | 1666 ft | 118 kts | 227° |
| 2026-05-04 14:34 | 43.70930 | -79.54748 | 1561 ft | 119 kts | 228° |
| 2026-05-04 14:34 | 43.70176 | -79.55883 | 1380 ft | 123 kts | 225° |
| 2026-05-04 14:35 | 43.69779 | -79.56451 | 1279 ft | 121 kts | 224° |
| 2026-05-04 14:35 | 43.69175 | -79.57302 | 1094 ft | 127 kts | 227° |
| 2026-05-04 14:35 | 43.68551 | -79.58196 | 895 ft | 131 kts | 233° |
| 2026-05-04 14:35 | 43.67957 | -79.59086 | 690 ft | 125 kts | 231° |
| 2026-05-04 14:36 | 43.67362 | -79.59974 | 577 ft | 123 kts | 226° |
| 2026-05-04 14:36 | 43.66875 | -79.60672 | 568 ft | 80 kts | 226° |
| 2026-05-04 14:36 | 43.66596 | -79.61075 | 572 ft | 31 kts | 226° |
| 2026-05-04 14:36 | 43.66470 | -79.61285 | 570 ft | 30 kts | 238° |
| 2026-05-04 14:37 | 43.66385 | -79.61585 | 571 ft | 35 kts | 260° |
| 2026-05-04 14:37 | 43.66427 | -79.61753 | 573 ft | 17 kts | 315° |
| 2026-05-04 14:37 | 43.66482 | -79.61829 | 571 ft | 0 kts | 315° |
| 2026-05-04 14:38 | 43.66510 | -79.61867 | 574 ft | 11 kts | 315° |
| 2026-05-04 14:38 | 43.66574 | -79.61942 | 570 ft | 10 kts | 351° |
| 2026-05-04 14:38 | 43.66632 | -79.61907 | 571 ft | 12 kts | 49° |
| 2026-05-04 14:38 | 43.66645 | -79.61885 | 568 ft | 0 kts | 49° |
| 2026-05-04 14:40 | 43.66648 | -79.61881 | 571 ft | 3 kts | 49° |
| 2026-05-04 14:40 | 43.66709 | -79.61789 | 574 ft | 22 kts | 46° |
| 2026-05-04 14:41 | 43.66817 | -79.61634 | 575 ft | 25 kts | 46° |
| 2026-05-04 14:41 | 43.66928 | -79.61475 | 576 ft | 17 kts | 46° |
| 2026-05-04 14:41 | 43.67120 | -79.61198 | 573 ft | 21 kts | 48° |
| 2026-05-04 14:42 | 43.67226 | -79.61198 | 573 ft | 1 kts | 322° |
| 2026-05-04 14:42 | 43.67247 | -79.61223 | 570 ft | 7 kts | 318° |
| 2026-05-04 14:42 | 43.67299 | -79.61290 | 575 ft | 12 kts | 317° |
| 2026-05-04 14:43 | 43.67370 | -79.61382 | 576 ft | 14 kts | 316° |
| 2026-05-04 14:43 | 43.67394 | -79.61414 | 574 ft | 14 kts | 316° |
| 2026-05-04 14:43 | 43.67470 | -79.61514 | 575 ft | 15 kts | 316° |
| 2026-05-04 14:43 | 43.67545 | -79.61612 | 569 ft | 15 kts | 316° |
| 2026-05-04 14:44 | 43.67601 | -79.61685 | 574 ft | 6 kts | 316° |
| 2026-05-04 14:44 | 43.67613 | -79.61695 | 576 ft | 2 kts | 360° |
| 2026-05-04 14:44 | 43.67627 | -79.61684 | 577 ft | 4 kts | 49° |
| 2026-05-04 14:44 | 43.67662 | -79.61619 | 576 ft | 7 kts | 90° |
| 2026-05-04 14:45 | 43.67636 | -79.61549 | 576 ft | 10 kts | 131° |
| 2026-05-04 14:45 | 43.67617 | -79.61483 | 574 ft | 8 kts | 85° |
| 2026-05-04 14:45 | 43.67635 | -79.61420 | 573 ft | 9 kts | 60° |
| 2026-05-04 14:45 | 43.67644 | -79.61399 | 572 ft | 0 kts | 60° |